Time;durP1;ratioP1;P1;durP2;ratioP2;P2;SDS_P1;SDS_P2;PMS_P1;PMS_P2;Temp;Humidity;BMP_temperature;BMP_pressure;BME280_temperature;BME280_humidity;BME280_pressure;Samples;Min_cycle;Max_cycle;Signal;HPM_P1;HPM_P2
2024/01/01 00:02:23;;;;;;;;;9.50;7.50;;;;;-146.67;49.69;75100.88;5065292;28;61737;-78
2024/01/01 00:04:48;;;;;;;;;11.75;8.00;;;;;-146.67;49.77;75108.88;5046091;28;63953;-78
2024/01/01 00:07:14;;;;;;;;;12.00;7.75;;;;;-146.67;49.67;75102.88;5064831;28;61703;-78
2024/01/01 00:09:39;;;;;;;;;13.00;7.50;;;;;-146.67;49.68;75104.88;5065340;28;61702;-78
2024/01/01 00:12:06;;;;;;;;;7.00;3.00;;;;;-146.67;49.38;75106.88;5065031;28;61668;-78
2024/01/01 00:14:31;;;;;;;;;6.25;4.50;;;;;-146.67;49.48;75106.88;5064410;28;61913;-79
2024/01/01 00:16:57;;;;;;;;;4.50;4.25;;;;;-146.67;49.59;75106.88;5064608;28;62191;-78
2024/01/01 00:19:22;;;;;;;;;4.75;3.00;;;;;-146.67;49.50;75104.88;5064973;28;62605;-78
2024/01/01 00:21:47;;;;;;;;;8.00;2.00;;;;;-146.67;49.69;75106.88;5065251;28;61949;-78
2024/01/01 00:24:13;;;;;;;;;2.00;2.00;;;;;-146.67;49.65;75122.84;5064189;28;62705;-78
2024/01/01 00:26:38;;;;;;;;;4.00;2.50;;;;;-146.67;49.43;75118.84;5064328;28;62091;-78
2024/01/01 00:29:03;;;;;;;;;8.25;2.75;;;;;-146.67;49.63;75114.88;5065274;28;61999;-78
2024/01/01 00:31:31;;;;;;;;;4.25;2.50;;;;;-146.67;49.52;75112.88;5046630;28;61923;-78
2024/01/01 00:33:56;;;;;;;;;2.75;2.00;;;;;-146.67;49.48;75126.84;5063894;28;61778;-78
2024/01/01 00:36:21;;;;;;;;;7.25;2.50;;;;;-146.67;49.54;75112.88;5071139;28;61739;-78
2024/01/01 00:38:47;;;;;;;;;8.25;4.50;;;;;-146.67;49.49;75110.88;5079127;28;61245;-78
2024/01/01 00:41:16;;;;;;;;;3.00;2.00;;;;;-146.67;49.47;75108.88;5073881;28;61821;-78
2024/01/01 00:43:43;;;;;;;;;6.50;2.50;;;;;-146.67;49.61;75110.88;5064254;28;62728;-78
2024/01/01 00:46:08;;;;;;;;;5.25;3.00;;;;;-146.67;49.40;75098.88;5045898;28;62072;-78
2024/01/01 00:48:34;;;;;;;;;10.25;3.75;;;;;-146.67;49.54;75110.88;5064700;28;61774;-78
2024/01/01 00:50:59;;;;;;;;;9.00;5.25;;;;;-146.67;49.58;75118.84;5064855;28;61939;-78
2024/01/01 00:53:24;;;;;;;;;6.00;3.00;;;;;-146.67;49.73;75112.88;5063970;28;62980;-78
2024/01/01 00:55:50;;;;;;;;;2.50;2.00;;;;;-146.67;49.71;75108.88;5064233;28;61842;-78
2024/01/01 00:58:15;;;;;;;;;3.00;2.00;;;;;-146.67;50.16;75120.84;5064246;28;61802;-78
2024/01/01 01:00:41;;;;;;;;;6.50;2.50;;;;;-146.67;50.03;75126.84;5064333;28;61730;-78
2024/01/01 01:03:06;;;;;;;;;8.00;1.50;;;;;-146.67;50.10;75128.84;5063884;28;61965;-78
2024/01/01 01:05:31;;;;;;;;;6.75;5.00;;;;;-146.67;50.16;75142.81;5063414;28;61989;-78
2024/01/01 01:07:58;;;;;;;;;2.00;1.75;;;;;-146.67;50.43;75138.81;5064207;28;61918;-78
2024/01/01 01:10:24;;;;;;;;;4.25;2.50;;;;;-146.67;50.26;75134.81;5064032;28;61832;-78
2024/01/01 01:12:53;;;;;;;;;2.00;2.00;;;;;-146.67;50.46;75140.81;5063797;28;61709;-78
2024/01/01 01:15:18;;;;;;;;;4.75;1.75;;;;;-146.67;50.33;75136.81;5063531;28;62085;-78
2024/01/01 01:17:44;;;;;;;;;3.00;1.25;;;;;-146.67;50.49;75146.81;5064188;28;61940;-78
2024/01/01 01:20:09;;;;;;;;;6.50;6.50;;;;;-146.67;50.68;75148.81;5064492;28;61800;-78
2024/01/01 01:22:35;;;;;;;;;3.50;2.25;;;;;-146.67;50.67;75136.81;5045245;28;63677;-78
2024/01/01 01:25:00;;;;;;;;;5.25;4.00;;;;;-146.67;50.61;75140.81;5063668;28;62046;-78
2024/01/01 01:27:25;;;;;;;;;1.00;1.00;;;;;-146.67;50.67;75142.81;5064010;28;61850;-78
2024/01/01 01:29:51;;;;;;;;;5.25;1.25;;;;;-146.67;50.83;75148.81;5064176;28;61891;-78
2024/01/01 01:32:16;;;;;;;;;9.25;3.00;;;;;-146.67;50.71;75152.81;5063072;28;62037;-78
2024/01/01 01:34:41;;;;;;;;;4.00;1.25;;;;;-146.67;50.80;75162.78;5063417;28;61797;-78
2024/01/01 01:37:07;;;;;;;;;4.00;3.50;;;;;-146.67;50.83;75176.75;5063948;28;61697;-78
2024/01/01 01:39:33;;;;;;;;;3.50;2.50;;;;;-146.67;50.68;75178.75;5061366;28;61790;-78
2024/01/01 01:41:58;;;;;;;;;6.00;2.50;;;;;-146.67;50.70;75170.78;5063183;28;62570;-78
2024/01/01 01:44:23;;;;;;;;;9.00;3.50;;;;;-146.67;50.39;75178.75;5063721;28;61765;-78
2024/01/01 01:46:49;;;;;;;;;6.00;2.00;;;;;-146.67;50.40;75172.78;5063451;28;61880;-78
2024/01/01 01:49:14;;;;;;;;;6.25;2.50;;;;;-146.67;50.21;75178.75;5063753;28;61928;-78
2024/01/01 01:51:39;;;;;;;;;9.75;3.00;;;;;-146.67;50.43;75182.75;5044844;28;64075;-78
2024/01/01 01:54:06;;;;;;;;;6.00;3.00;;;;;-146.67;50.13;75170.78;5063214;28;61824;-78
2024/01/01 01:56:31;;;;;;;;;3.00;2.00;;;;;-146.67;50.45;75182.75;5063441;28;61848;-78
2024/01/01 01:58:58;;;;;;;;;5.75;3.00;;;;;-146.67;50.37;75182.75;5063620;28;61781;-78
2024/01/01 02:01:25;;;;;;;;;2.00;2.00;;;;;-146.67;50.18;75188.75;5061319;28;64456;-78
2024/01/01 02:03:50;;;;;;;;;2.25;2.00;;;;;-146.67;50.41;75198.72;5063217;28;61745;-78
2024/01/01 02:06:16;;;;;;;;;4.50;3.00;;;;;-146.67;50.43;75194.72;5063016;28;61872;-78
2024/01/01 02:08:41;;;;;;;;;3.00;1.75;;;;;-146.67;50.27;75186.75;5063109;28;61694;-78
2024/01/01 02:11:06;;;;;;;;;1.00;1.00;;;;;-146.67;50.14;75196.72;5062748;28;61698;-78
2024/01/01 02:13:32;;;;;;;;;3.50;3.00;;;;;-146.67;50.29;75202.72;5063331;28;61731;-78
2024/01/01 02:15:57;;;;;;;;;2.00;2.00;;;;;-146.67;50.55;75216.69;5062786;28;62124;-78
2024/01/01 02:18:25;;;;;;;;;11.25;2.25;;;;;-146.67;50.39;75206.72;5063531;28;61914;-78
2024/01/01 02:20:50;;;;;;;;;3.00;3.00;;;;;-146.67;50.35;75210.72;5061087;28;63826;-78
2024/01/01 02:23:16;;;;;;;;;8.00;2.00;;;;;-146.67;50.45;75210.72;5062671;28;61956;-78
2024/01/01 02:25:42;;;;;;;;;8.25;1.50;;;;;-146.67;50.21;75206.72;5044873;28;62028;-78
2024/01/01 02:28:08;;;;;;;;;2.75;2.00;;;;;-146.67;50.47;75214.69;5063282;28;61858;-79
2024/01/01 02:30:33;;;;;;;;;8.00;3.25;;;;;-146.67;50.31;75212.72;5062374;28;62881;-78
2024/01/01 02:32:58;;;;;;;;;11.00;2.00;;;;;-146.67;50.29;75208.72;5063159;28;61683;-78
2024/01/01 02:35:24;;;;;;;;;7.00;3.00;;;;;-146.67;50.27;75206.72;5062540;28;61972;-78
2024/01/01 02:37:49;;;;;;;;;6.00;4.00;;;;;-146.67;50.31;75214.69;5062625;28;61848;-78
2024/01/01 02:40:14;;;;;;;;;5.00;1.00;;;;;-146.67;50.10;75210.72;5044282;28;63751;-78
2024/01/01 02:42:40;;;;;;;;;5.50;1.75;;;;;-146.67;50.23;75206.72;5044696;28;61951;-78
2024/01/01 02:45:06;;;;;;;;;6.25;0.75;;;;;-146.67;50.32;75204.72;5062768;28;61875;-78
2024/01/01 02:47:32;;;;;;;;;5.75;1.50;;;;;-146.67;50.24;75210.72;5062777;28;62177;-78
2024/01/01 02:49:57;;;;;;;;;2.00;2.00;;;;;-146.67;50.11;75212.72;5062103;28;61781;-78
2024/01/01 02:52:22;;;;;;;;;1.00;1.00;;;;;-146.67;50.15;75208.72;5044392;28;61774;-78
2024/01/01 02:54:48;;;;;;;;;1.25;1.25;;;;;-146.67;50.21;75222.69;5062617;28;62593;-78
2024/01/01 02:57:13;;;;;;;;;10.50;2.00;;;;;-146.67;50.17;75218.69;5062793;28;61880;-78
2024/01/01 02:59:39;;;;;;;;;4.00;1.00;;;;;-146.67;49.68;75212.72;5061941;28;63199;-78
2024/01/01 03:02:07;;;;;;;;;1.00;1.00;;;;;-146.67;50.10;75222.69;5061024;28;62078;-78
2024/01/01 03:04:32;;;;;;;;;5.00;1.50;;;;;-146.67;49.98;75212.72;5062432;28;61991;-78
2024/01/01 03:06:57;;;;;;;;;5.00;2.00;;;;;-146.67;49.84;75222.69;5061990;28;61763;-78
2024/01/01 03:09:23;;;;;;;;;1.75;1.00;;;;;-146.67;49.97;75208.72;5062058;28;61813;-78
2024/01/01 03:11:48;;;;;;;;;3.25;1.00;;;;;-146.67;49.77;75212.72;5062393;28;62018;-78
2024/01/01 03:14:14;;;;;;;;;3.50;2.25;;;;;-146.67;49.75;75208.72;5044253;28;62143;-78
2024/01/01 03:16:41;;;;;;;;;2.00;2.00;;;;;-146.67;49.98;75218.69;5044167;28;61751;-78
2024/01/01 03:19:06;;;;;;;;;6.50;3.00;;;;;-146.67;49.83;75212.72;5061748;28;61758;-78
2024/01/01 03:21:32;;;;;;;;;6.75;3.00;;;;;-146.67;49.63;75220.69;5044072;28;61962;-78
2024/01/01 03:23:57;;;;;;;;;7.00;5.00;;;;;-146.67;49.60;75214.69;5062034;28;61784;-78
2024/01/01 03:26:22;;;;;;;;;10.50;4.75;;;;;-146.67;49.56;75220.69;5062487;28;61736;-78
2024/01/01 03:28:48;;;;;;;;;6.75;2.25;;;;;-146.67;49.60;75222.69;5061448;28;61649;-78
2024/01/01 03:31:13;;;;;;;;;8.25;6.25;;;;;-146.67;49.74;75218.69;5061795;28;61728;-78
2024/01/01 03:33:38;;;;;;;;;7.00;5.50;;;;;-146.67;49.85;75230.69;5062241;28;62165;-78
2024/01/01 03:36:04;;;;;;;;;12.75;7.00;;;;;-146.67;49.66;75232.69;5043706;28;62081;-78
2024/01/01 03:38:29;;;;;;;;;26.75;13.25;;;;;-146.67;49.71;75238.66;5061509;28;62753;-78
2024/01/01 03:40:55;;;;;;;;;20.00;13.25;;;;;-146.67;49.53;75236.66;5061723;28;61899;-78
2024/01/01 03:43:20;;;;;;;;;10.00;5.50;;;;;-146.67;49.48;75254.63;5062155;28;61782;-78
2024/01/01 03:45:46;;;;;;;;;6.00;1.75;;;;;-146.67;49.74;75252.66;5061898;28;61769;-78
2024/01/01 03:48:12;;;;;;;;;5.50;3.00;;;;;-146.67;49.77;75258.63;5061303;28;62401;-78
2024/01/01 03:50:37;;;;;;;;;1.00;1.00;;;;;-146.67;49.45;75260.63;5061720;28;61957;-78
2024/01/01 03:53:03;;;;;;;;;4.50;2.00;;;;;-146.67;49.62;75266.63;5062136;28;61929;-78
2024/01/01 03:55:28;;;;;;;;;1.00;1.00;;;;;-146.67;49.67;75260.63;5062082;28;61939;-78
2024/01/01 03:57:54;;;;;;;;;2.50;1.75;;;;;-146.67;49.55;75254.63;5061200;28;62775;-78
2024/01/01 04:00:19;;;;;;;;;4.50;2.00;;;;;-146.67;49.41;75258.63;5043400;28;61896;-78
2024/01/01 04:02:46;;;;;;;;;1.00;1.00;;;;;-146.67;49.65;75264.63;5063979;28;61936;-78
2024/01/01 04:05:12;;;;;;;;;4.50;1.00;;;;;-146.67;49.69;75280.59;5064676;28;61894;-79
2024/01/01 04:07:38;;;;;;;;;2.25;1.00;;;;;-146.67;49.58;75284.59;5064798;28;62687;-78
2024/01/01 04:10:05;;;;;;;;;3.50;0.75;;;;;-146.67;49.53;75282.59;5064952;28;61816;-78
2024/01/01 04:12:31;;;;;;;;;5.00;2.00;;;;;-146.67;49.49;75282.59;5063809;28;61908;-78
2024/01/01 04:14:56;;;;;;;;;0.00;0.00;;;;;-146.67;49.48;75286.59;5047017;28;62331;-78
2024/01/01 04:17:22;;;;;;;;;5.00;1.00;;;;;-146.67;49.20;75296.56;5062076;28;63496;-78
2024/01/01 04:19:48;;;;;;;;;4.25;1.75;;;;;-146.67;49.27;75292.56;5065017;28;61691;-78
2024/01/01 04:22:15;;;;;;;;;3.50;1.00;;;;;-146.67;49.54;75302.56;5064873;28;61823;-78
2024/01/01 04:24:41;;;;;;;;;2.25;1.00;;;;;-146.67;49.20;75300.56;5063629;28;61839;-78
2024/01/01 04:27:07;;;;;;;;;1.00;1.00;;;;;-146.67;49.11;75306.56;5062970;28;64761;-78
2024/01/01 04:29:32;;;;;;;;;2.75;1.00;;;;;-146.67;49.32;75304.56;5065068;28;62050;-78
2024/01/01 04:31:58;;;;;;;;;0.25;0.25;;;;;-146.67;49.04;75310.56;5063989;28;61898;-78
2024/01/01 04:34:23;;;;;;;;;2.75;1.00;;;;;-146.67;48.99;75306.56;5064643;28;61735;-78
2024/01/01 04:36:49;;;;;;;;;2.00;1.00;;;;;-146.67;48.93;75312.53;5064211;28;62715;-78
2024/01/01 04:39:14;;;;;;;;;2.00;0.00;;;;;-146.67;48.79;75304.56;5064581;28;61748;-78
2024/01/01 04:41:39;;;;;;;;;3.25;0.00;;;;;-146.67;49.04;75320.53;5063632;28;62280;-78
2024/01/01 04:44:05;;;;;;;;;7.00;1.00;;;;;-146.67;48.97;75330.53;5064767;28;61856;-78
2024/01/01 04:46:30;;;;;;;;;3.25;1.00;;;;;-146.67;48.91;75314.53;5063023;28;61939;-78
2024/01/01 04:48:55;;;;;;;;;2.00;1.00;;;;;-146.67;49.00;75326.53;5064771;28;62098;-78
2024/01/01 04:51:20;;;;;;;;;1.50;1.25;;;;;-146.67;48.91;75326.53;5064312;28;62086;-78
2024/01/01 04:53:46;;;;;;;;;8.75;0.25;;;;;-146.67;48.89;75332.50;5064752;28;61787;-78
2024/01/01 04:56:11;;;;;;;;;1.00;1.00;;;;;-146.67;49.01;75344.50;5062402;28;64064;-78
2024/01/01 04:58:37;;;;;;;;;2.75;0.00;;;;;-146.67;48.94;75342.50;5062804;28;61874;-78
2024/01/01 05:01:02;;;;;;;;;2.00;0.00;;;;;-146.67;49.00;75344.50;5063740;28;61842;-78
2024/01/01 05:03:27;;;;;;;;;1.50;0.00;;;;;-146.67;49.07;75348.50;5064645;28;62293;-78
2024/01/01 05:05:53;;;;;;;;;1.00;1.00;;;;;-146.67;48.97;75354.47;5062724;28;62596;-78
2024/01/01 05:08:18;;;;;;;;;5.25;1.00;;;;;-146.67;49.08;75354.47;5064375;28;61978;-78
2024/01/01 05:10:43;;;;;;;;;8.00;4.50;;;;;-146.67;48.77;75352.47;5064436;28;61819;-78
2024/01/01 05:13:09;;;;;;;;;5.25;3.00;;;;;-146.67;48.81;75354.47;5063144;28;61965;-78
2024/01/01 05:15:34;;;;;;;;;3.50;1.75;;;;;-146.67;48.90;75362.47;5062941;28;62076;-78
2024/01/01 05:18:00;;;;;;;;;6.00;1.00;;;;;-146.67;48.75;75368.47;5064007;28;61764;-78
2024/01/01 05:20:25;;;;;;;;;6.00;5.00;;;;;-146.67;48.60;75362.47;5063920;28;61841;-78
2024/01/01 05:22:51;;;;;;;;;5.00;2.00;;;;;-146.67;48.94;75370.47;5046274;28;61927;-78
2024/01/01 05:25:16;;;;;;;;;2.25;1.00;;;;;-146.67;48.93;75372.44;5063254;28;61791;-78
2024/01/01 05:27:42;;;;;;;;;11.00;6.75;;;;;-146.67;49.21;75372.44;5064044;28;61816;-78
2024/01/01 05:30:08;;;;;;;;;14.75;8.50;;;;;-146.67;49.02;75372.44;5063681;28;61923;-78
2024/01/01 05:32:33;;;;;;;;;3.50;3.50;;;;;-146.67;48.79;75370.47;5063547;28;62033;-78
2024/01/01 05:34:59;;;;;;;;;7.25;5.75;;;;;-146.67;48.77;75376.44;5063052;28;62812;-78
2024/01/01 05:37:25;;;;;;;;;6.50;3.00;;;;;-146.67;49.03;75386.44;5063325;28;61844;-78
2024/01/01 05:39:50;;;;;;;;;1.50;1.50;;;;;-146.67;49.00;75386.44;5063834;28;61875;-78
2024/01/01 05:42:16;;;;;;;;;6.50;1.75;;;;;-146.67;49.02;75388.44;5064011;28;61733;-78
2024/01/01 05:44:41;;;;;;;;;1.50;0.75;;;;;-146.67;49.41;75388.44;5062466;28;61871;-78
2024/01/01 05:47:06;;;;;;;;;5.00;1.00;;;;;-146.67;49.20;75392.41;5063297;28;61746;-78
2024/01/01 05:49:32;;;;;;;;;1.00;1.00;;;;;-146.67;49.13;75394.41;5063613;28;62131;-78
2024/01/01 05:51:57;;;;;;;;;3.00;1.00;;;;;-146.67;49.24;75398.41;5045687;28;61841;-78
2024/01/01 05:54:22;;;;;;;;;2.00;2.00;;;;;-146.67;49.10;75398.41;5061931;28;63536;-78
2024/01/01 05:56:48;;;;;;;;;1.75;1.50;;;;;-146.67;49.01;75396.41;5063097;28;61847;-78
2024/01/01 05:59:13;;;;;;;;;5.00;2.25;;;;;-146.67;49.07;75398.41;5063254;28;61817;-78
2024/01/01 06:01:40;;;;;;;;;2.75;2.25;;;;;-146.67;49.13;75406.41;5063212;28;61926;-78
2024/01/01 06:04:05;;;;;;;;;5.75;1.00;;;;;-146.67;49.13;75418.38;5062708;28;62488;-78
2024/01/01 06:06:30;;;;;;;;;9.25;1.25;;;;;-146.67;49.21;75404.41;5061282;28;61850;-78
2024/01/01 06:08:56;;;;;;;;;3.50;1.00;;;;;-146.67;49.39;75416.38;5063493;28;61842;-78
2024/01/01 06:11:21;;;;;;;;;4.50;1.50;;;;;-146.67;49.32;75408.41;5063522;28;62151;-78
2024/01/01 06:13:46;;;;;;;;;0.25;0.25;;;;;-146.67;48.97;75406.41;5044258;28;64581;-79
2024/01/01 06:16:15;;;;;;;;;5.00;1.00;;;;;-146.67;49.38;75416.38;5044691;28;61937;-78
2024/01/01 06:18:41;;;;;;;;;1.25;1.25;;;;;-146.67;49.31;75422.38;5063206;28;62084;-78
2024/01/01 06:21:06;;;;;;;;;1.00;1.00;;;;;-146.67;49.18;75418.38;5045287;28;61796;-78
2024/01/01 06:23:31;;;;;;;;;5.00;2.00;;;;;-146.67;48.96;75414.38;5062556;28;61774;-78
2024/01/01 06:25:57;;;;;;;;;4.00;2.00;;;;;-146.67;49.42;75424.38;5061175;28;61868;-77
2024/01/01 06:28:22;;;;;;;;;1.25;1.00;;;;;-146.67;49.40;75422.38;5063045;28;61970;-78
2024/01/01 06:30:48;;;;;;;;;2.00;1.00;;;;;-146.67;49.39;75424.38;5061445;28;61871;-78
2024/01/01 06:33:14;;;;;;;;;2.00;1.00;;;;;-146.67;49.24;75434.34;5062372;28;61809;-78
2024/01/01 06:35:40;;;;;;;;;2.00;1.00;;;;;-146.67;49.20;75442.34;5062639;28;62016;-78
2024/01/01 06:38:06;;;;;;;;;6.00;0.00;;;;;-146.67;49.33;75446.34;5063054;28;61910;-78
2024/01/01 06:40:31;;;;;;;;;2.50;0.75;;;;;-146.67;49.44;75440.34;5063124;28;61858;-78
2024/01/01 06:42:56;;;;;;;;;3.00;2.00;;;;;-146.67;49.54;75446.34;5062140;28;62085;-78
2024/01/01 06:45:22;;;;;;;;;9.00;1.00;;;;;-146.67;49.41;75442.34;5061344;28;61913;-78
2024/01/01 06:47:48;;;;;;;;;3.50;1.00;;;;;-146.67;49.57;75450.34;5062509;28;61897;-78
2024/01/01 06:50:13;;;;;;;;;1.00;1.00;;;;;-146.67;49.48;75452.31;5063077;28;61934;-78
2024/01/01 06:52:38;;;;;;;;;5.25;2.00;;;;;-146.67;49.48;75454.31;5043868;28;64936;-78
2024/01/01 06:55:04;;;;;;;;;2.00;1.00;;;;;-146.67;49.49;75452.31;5044490;28;61897;-78
2024/01/01 06:57:30;;;;;;;;;0.75;0.50;;;;;-146.67;49.48;75462.31;5062221;28;61719;-78
2024/01/01 06:59:55;;;;;;;;;0.25;0.25;;;;;-146.67;49.72;75470.31;5062789;28;61672;-78
2024/01/01 07:02:20;;;;;;;;;1.00;1.00;;;;;-146.67;49.56;75472.28;5061925;28;61917;-78
2024/01/01 07:04:46;;;;;;;;;9.75;0.00;;;;;-146.67;49.71;75474.28;5061936;28;61691;-78
2024/01/01 07:07:11;;;;;;;;;4.75;1.50;;;;;-146.67;49.96;75494.25;5062310;28;61673;-78
2024/01/01 07:09:38;;;;;;;;;2.50;1.00;;;;;-146.67;49.79;75482.28;5062934;28;61718;-78
2024/01/01 07:12:23;;;;;;;;;1.00;1.00;;;;;-146.67;49.82;75478.28;5061454;28;61745;-78
2024/01/01 07:14:49;;;;;;;;;0.25;0.25;;;;;-146.67;49.59;75478.28;5044107;28;61762;-78
2024/01/01 07:17:16;;;;;;;;;2.00;0.50;;;;;-146.67;49.48;75480.28;5061995;28;61802;-78
2024/01/01 07:19:42;;;;;;;;;1.00;1.00;;;;;-146.67;49.42;75490.28;5061538;28;61866;-77
2024/01/01 07:22:08;;;;;;;;;3.50;1.50;;;;;-146.67;49.74;75496.25;5061726;28;62545;-78
2024/01/01 07:24:33;;;;;;;;;1.75;1.00;;;;;-146.67;49.79;75500.25;5060843;28;61734;-78
2024/01/01 07:26:58;;;;;;;;;6.50;2.00;;;;;-146.67;49.66;75496.25;5061939;28;61812;-78
2024/01/01 07:29:24;;;;;;;;;1.75;1.00;;;;;-146.67;49.66;75508.25;5061172;28;61755;-78
2024/01/01 07:31:49;;;;;;;;;7.00;5.50;;;;;-146.67;49.71;75500.25;5043009;28;64790;-78
2024/01/01 07:34:18;;;;;;;;;6.25;5.75;;;;;-146.67;49.93;75510.25;5062090;28;61837;-78
2024/01/01 07:36:43;;;;;;;;;5.50;4.50;;;;;-146.67;49.64;75514.22;5045113;28;61993;-78
2024/01/01 07:39:09;;;;;;;;;17.50;11.50;;;;;-146.67;49.83;75508.25;5065887;28;61908;-78
2024/01/01 07:41:34;;;;;;;;;6.75;5.00;;;;;-146.67;49.89;75504.25;5064955;28;62748;-78
2024/01/01 07:43:59;;;;;;;;;3.50;0.75;;;;;-146.67;49.77;75506.25;5047401;28;61802;-78
2024/01/01 07:46:25;;;;;;;;;2.00;2.00;;;;;-146.67;49.79;75510.25;5065243;28;61952;-78
2024/01/01 07:48:50;;;;;;;;;3.00;1.00;;;;;-146.67;50.22;75530.22;5065743;28;61904;-78
2024/01/01 07:51:15;;;;;;;;;5.50;2.00;;;;;-146.67;50.24;75536.19;5064915;28;61777;-78
2024/01/01 07:53:42;;;;;;;;;8.75;3.00;;;;;-146.67;50.02;75536.19;5065693;28;61912;-78
2024/01/01 07:56:08;;;;;;;;;6.00;2.00;;;;;-146.67;50.07;75538.19;5064930;28;62061;-78
2024/01/01 07:58:33;;;;;;;;;1.50;1.00;;;;;-146.67;50.41;75536.19;5065480;28;61814;-78
2024/01/01 08:00:59;;;;;;;;;1.50;1.00;;;;;-146.67;50.18;75540.19;5046266;28;63719;-78
2024/01/01 08:03:25;;;;;;;;;4.00;1.00;;;;;-146.67;50.11;75528.22;5064892;28;61794;-78
2024/01/01 08:05:51;;;;;;;;;2.25;1.00;;;;;-146.67;49.98;75536.19;5061076;28;61861;-78
2024/01/01 08:08:16;;;;;;;;;6.50;1.00;;;;;-146.67;49.99;75542.19;5065617;28;62088;-78
2024/01/01 08:10:43;;;;;;;;;7.50;1.00;;;;;-146.67;49.97;75532.22;5046015;28;64048;-78
2024/01/01 08:13:08;;;;;;;;;2.75;1.00;;;;;-146.67;50.15;75526.22;5063741;28;62170;-78
2024/01/01 08:15:34;;;;;;;;;5.25;2.00;;;;;-146.67;49.77;75520.22;5065073;28;61921;-78
2024/01/01 08:17:59;;;;;;;;;3.75;0.75;;;;;-146.67;49.71;75518.22;5046846;28;61773;-78
2024/01/01 08:20:24;;;;;;;;;4.75;1.25;;;;;-146.67;49.84;75516.22;5064414;28;61776;-77
2024/01/01 08:22:50;;;;;;;;;2.00;0.50;;;;;-146.67;49.65;75510.25;5063760;28;62010;-78
2024/01/01 08:25:15;;;;;;;;;6.50;1.00;;;;;-146.67;49.90;75514.22;5064592;28;61715;-78
2024/01/01 08:27:40;;;;;;;;;1.00;1.00;;;;;-146.67;49.57;75518.22;5047177;28;62100;-78
2024/01/01 08:30:06;;;;;;;;;2.75;2.75;;;;;-146.67;49.71;75514.22;5064252;28;62033;-78
2024/01/01 08:32:33;;;;;;;;;6.00;2.00;;;;;-146.67;49.59;75516.22;5064634;28;61996;-78
2024/01/01 08:34:58;;;;;;;;;6.25;0.25;;;;;-146.67;49.47;75516.22;5064335;28;61652;-78
2024/01/01 08:37:23;;;;;;;;;2.00;2.00;;;;;-146.67;49.45;75512.25;5065034;28;62161;-78
2024/01/01 08:39:49;;;;;;;;;1.25;1.00;;;;;-146.67;49.38;75516.22;5063895;28;61886;-78
2024/01/01 08:42:14;;;;;;;;;3.50;1.00;;;;;-146.67;49.52;75504.25;5064830;28;61925;-78
2024/01/01 08:44:40;;;;;;;;;1.00;1.00;;;;;-146.67;49.29;75510.25;5046395;28;61827;-78
2024/01/01 08:47:05;;;;;;;;;3.00;1.75;;;;;-146.67;49.27;75518.22;5064425;28;61913;-78
2024/01/01 08:49:31;;;;;;;;;2.00;1.00;;;;;-146.67;49.68;75516.22;5064145;28;61696;-78
2024/01/01 08:51:56;;;;;;;;;3.25;2.75;;;;;-146.67;49.33;75508.25;5064613;28;61843;-78
2024/01/01 08:54:22;;;;;;;;;5.75;2.25;;;;;-146.67;49.51;75506.25;5062954;28;62132;-78
2024/01/01 08:56:48;;;;;;;;;2.00;2.00;;;;;-146.67;49.47;75484.28;5046448;28;62077;-78
2024/01/01 08:59:15;;;;;;;;;5.25;1.00;;;;;-146.67;49.20;75484.28;5063712;28;61911;-78
2024/01/01 09:01:45;;;;;;;;;1.75;1.00;;;;;-146.67;49.07;75482.28;5064192;28;62000;-78
2024/01/01 09:04:11;;;;;;;;;7.25;2.00;;;;;-146.67;49.21;75462.31;5063867;28;61952;-78
2024/01/01 09:06:36;;;;;;;;;2.50;2.25;;;;;-146.67;49.10;75468.31;5063995;28;61868;-78
2024/01/01 09:09:02;;;;;;;;;6.75;5.75;;;;;-146.67;49.02;75452.31;5063567;28;61684;-78
2024/01/01 09:11:27;;;;;;;;;5.75;2.50;;;;;-146.67;48.79;75458.31;5064263;28;61721;-78
2024/01/01 09:13:52;;;;;;;;;6.50;3.25;;;;;-146.67;48.71;75458.31;5064320;28;61902;-78
2024/01/01 09:16:18;;;;;;;;;3.00;1.00;;;;;-146.67;48.96;75448.34;5063821;28;61798;-78
2024/01/01 09:18:43;;;;;;;;;2.00;2.00;;;;;-146.67;48.82;75446.34;5045244;28;63952;-78
2024/01/01 09:21:15;;;;;;;;;6.25;1.75;;;;;-146.67;48.71;75446.34;5064079;28;61685;-78
2024/01/01 09:23:41;;;;;;;;;6.25;2.00;;;;;-146.67;48.60;75434.34;5064038;28;61834;-78
2024/01/01 09:26:07;;;;;;;;;3.50;1.00;;;;;-146.67;48.39;75434.34;5062708;28;61810;-78
2024/01/01 09:28:33;;;;;;;;;3.50;2.00;;;;;-146.67;48.39;75434.34;5061972;28;63598;-78
2024/01/01 09:30:59;;;;;;;;;1.00;1.00;;;;;-146.67;48.65;75424.38;5045415;28;62363;-78
2024/01/01 09:33:25;;;;;;;;;7.25;2.50;;;;;-146.67;48.52;75426.38;5064072;28;61762;-78
2024/01/01 09:35:52;;;;;;;;;1.00;1.00;;;;;-146.67;48.29;75416.38;5062152;28;61811;-78
2024/01/01 09:38:18;;;;;;;;;6.00;2.00;;;;;-146.67;48.27;75416.38;5062814;28;62017;-78
2024/01/01 09:40:44;;;;;;;;;6.00;0.00;;;;;-146.67;48.07;75400.41;5063867;28;61838;-78
2024/01/01 09:43:15;;;;;;;;;3.00;2.25;;;;;-146.67;48.21;75406.41;5064005;28;61651;-78
2024/01/01 09:45:42;;;;;;;;;1.25;1.25;;;;;-146.67;48.15;75410.41;5063818;28;61766;-78
2024/01/01 09:48:07;;;;;;;;;5.00;1.00;;;;;-146.67;48.06;75410.41;5062864;28;61872;-78
2024/01/01 09:50:33;;;;;;;;;1.75;1.75;;;;;-146.67;48.24;75404.41;5045327;28;61807;-78
2024/01/01 09:52:59;;;;;;;;;2.00;0.00;;;;;-146.67;48.03;75394.41;5063658;28;62156;-78
2024/01/01 09:55:24;;;;;;;;;3.00;2.00;;;;;-146.67;47.82;75388.44;5063572;28;61873;-78
2024/01/01 09:57:50;;;;;;;;;1.25;1.25;;;;;-146.67;47.79;75380.44;5044553;28;64690;-78
2024/01/01 10:00:22;;;;;;;;;2.00;1.00;;;;;-146.67;47.82;75384.44;5044655;28;61891;-78
2024/01/01 10:02:47;;;;;;;;;2.75;1.00;;;;;-146.67;47.93;75382.44;5063282;28;61981;-78
2024/01/01 10:05:14;;;;;;;;;7.00;1.00;;;;;-146.67;48.08;75376.44;5062580;28;61863;-77
2024/01/01 10:07:39;;;;;;;;;3.25;1.50;;;;;-146.67;47.77;75372.44;5044586;28;65122;-78
2024/01/01 10:10:05;;;;;;;;;2.00;2.00;;;;;-146.67;48.05;75360.47;5061972;28;61955;-78
2024/01/01 10:12:32;;;;;;;;;7.00;3.00;;;;;-146.67;47.49;75356.47;5063293;28;61730;-78
2024/01/01 10:14:58;;;;;;;;;5.25;0.75;;;;;-146.67;47.75;75346.50;5063515;28;61807;-78
2024/01/01 10:17:24;;;;;;;;;3.25;2.25;;;;;-146.67;47.59;75340.50;5053782;28;63146;-78
2024/01/01 10:19:55;;;;;;;;;2.50;2.25;;;;;-146.67;47.69;75326.53;5062919;28;61768;-78
2024/01/01 10:22:22;;;;;;;;;6.00;3.00;;;;;-146.67;47.48;75324.53;5063225;28;61855;-78
2024/01/01 10:24:49;;;;;;;;;3.75;1.75;;;;;-146.67;47.60;75310.56;5045402;28;62231;-78
2024/01/01 10:27:19;;;;;;;;;1.25;0.75;;;;;-146.67;47.46;75298.56;5062288;28;62857;-78
2024/01/01 10:29:49;;;;;;;;;3.50;2.00;;;;;-146.67;47.16;75282.59;5061609;28;61808;-79
2024/01/01 10:32:16;;;;;;;;;4.75;0.00;;;;;-146.67;47.12;75266.63;5061451;28;61885;-78
2024/01/01 10:34:47;;;;;;;;;2.75;2.00;;;;;-146.67;46.93;75256.63;5062445;28;61941;-78
2024/01/01 10:37:18;;;;;;;;;14.25;9.25;;;;;-146.67;46.96;75244.66;5062198;28;61798;-78
2024/01/01 10:39:45;;;;;;;;;8.00;7.00;;;;;-146.67;47.12;75226.69;5062950;28;61752;-78
2024/01/01 10:42:11;;;;;;;;;7.50;7.50;;;;;-146.67;46.76;75212.72;5062908;28;62376;-78
2024/01/01 10:44:36;;;;;;;;;6.25;5.50;;;;;-146.67;46.61;75224.69;5062880;28;62102;-78
2024/01/01 10:47:08;;;;;;;;;9.25;8.00;;;;;-146.67;46.82;75214.69;5061866;28;61762;-78
2024/01/01 10:49:34;;;;;;;;;6.25;4.00;;;;;-146.67;46.84;75218.69;5062495;28;61870;-78
2024/01/01 10:52:18;;;;;;;;;5.00;2.75;;;;;-146.67;46.68;75214.69;5062746;28;62182;-78
2024/01/01 10:55:24;;;;;;;;;5.00;3.00;;;;;-146.67;46.65;75220.69;5044274;28;61727;-78
2024/01/01 10:57:57;;;;;;;;;4.00;3.00;;;;;-146.67;46.74;75214.69;5043624;28;63862;-78
2024/01/01 11:00:28;;;;;;;;;5.00;2.25;;;;;-146.67;46.83;75210.72;5044650;28;61886;-78
2024/01/01 11:02:55;;;;;;;;;2.00;1.75;;;;;-146.67;46.76;75188.75;5062308;28;61980;-78
2024/01/01 11:05:34;;;;;;;;;2.00;2.00;;;;;-146.67;46.63;75186.75;5061417;28;61719;-78
2024/01/01 11:08:01;;;;;;;;;2.50;2.50;;;;;-146.67;46.47;75178.75;5060588;28;63895;-78
2024/01/01 11:10:45;;;;;;;;;1.25;1.00;;;;;-146.67;46.29;75176.75;5062641;28;61921;-78
2024/01/01 11:13:12;;;;;;;;;7.50;3.00;;;;;-146.67;46.27;75182.75;5064640;28;61851;-79